Carrollton, TX (75007)

8:19 PM CDT on August 30, 2015 (GMT -0500)
N Carrollton / Rosemeade / Greenbelt | | Change Station
CLOSE
Current Station
Personal Weather Station
Location: Carrollton, TX
Elevation: 551 ft
Nearby Weather Stations

Elev 551 ft 33.01 °N, 96.88 °W | Updated 5 seconds ago

Partly Cloudy
Partly Cloudy
86.0 °F
Feels Like 88 °F
N
4.0
Wind Variable Wind from SSW
Gusts 17.0 mph

Today
High -- | Low -- °F
--% Chance of Precip.
Yesterday
High -- | Low -- °F
Precip. -- in
7:00 AM 7:55 PM
Full, 98% visible
Pressure 29.93 in
Visibility 13.0 miles
Clouds Scattered Clouds 8000 ft
Heat Index 88 °F
Dew Point 64 °F
Humidity 49%
Rainfall 0.00 in
Snow Depth Not available.
UV 0 out of 12
Pollen 8.70 out of 12
Air Quality Not available.
Flu Activity Not available.
METAR KADS 310047Z 18011G15KT 13SM SCT080 32/16 A2993
Pressure 29.93 in
Visibility 13.0 miles
Clouds Scattered Clouds 8000 ft
Heat Index 88 °F
Dew Point 64 °F
Humidity 49%
Rainfall 0.00 in
Snow Depth Not available.
UV 0 out of 12
Pollen 8.70 out of 12
Air Quality Not available.
Flu Activity Not available.
METAR KADS 310047Z 18011G15KT 13SM SCT080 32/16 A2993

10-Day Weather Forecast

×

Almanac

Astronomy

Aug. 30, 2015 Rise Set
Actual Time
Civil Twilight
Nautical Twilight
Astronomical Twilight
Moon
Length of Visible Light
Length of Day
Tomorrow will be .
, % of the Moon is Illuminated

Today's Extremes

State Highs State Lows

Community

WunderPhotos

Upload Photos

1,851,131 photos uploaded!

WunderBlogs® & News

Nearby

Air Quality

  Air Quality AQ Index Pollutant
Not available.

Snow Depth

Station Depth Elevation

Earthquake Activity

City Distance Mag. Time & Date
Minimum magnitude displayed is 2.5.

Coastal Water Temperatures

Place Temperature

Stations

Nearby Weather Stations

Station Location Temp. Windchill Dew Point Humidity Wind Precip. Elev Updated Type